Time;durP1;ratioP1;P1;durP2;ratioP2;P2;SDS_P1;SDS_P2;PMS_P1;PMS_P2;Temp;Humidity;BMP_temperature;BMP_pressure;BME280_temperature;BME280_humidity;BME280_pressure;Samples;Min_cycle;Max_cycle;Signal;HPM_P1;HPM_P2
2023/12/10 16:42:23;;;;;;;17.60;5.47;;;19.30;53.70;;;;;;5105404;27;20894;-49
2023/12/10 16:44:50;;;;;;;27.15;5.05;;;19.60;55.90;;;;;;5101431;28;20028;-45
2023/12/10 16:47:16;;;;;;;17.55;5.88;;;19.70;56.10;;;;;;5089186;28;20482;-53
2023/12/10 16:49:42;;;;;;;16.30;5.18;;;19.90;56.70;;;;;;5085910;28;20067;-55
2023/12/10 16:52:08;;;;;;;12.57;5.07;;;19.90;55.60;;;;;;5087310;28;20028;-53
2023/12/10 16:54:34;;;;;;;18.77;5.82;;;19.90;55.50;;;;;;5085620;28;20035;-54
2023/12/10 16:57:00;;;;;;;11.07;4.80;;;20.00;55.30;;;;;;5086242;28;20037;-52
2023/12/10 16:59:26;;;;;;;21.10;5.03;;;20.00;55.00;;;;;;5085946;28;20032;-55
2023/12/10 17:01:53;;;;;;;11.10;4.53;;;20.10;55.00;;;;;;5086004;28;20024;-55
2023/12/10 17:04:19;;;;;;;16.95;5.15;;;20.10;55.10;;;;;;5085733;28;20533;-54
2023/12/10 17:06:46;;;;;;;16.02;5.72;;;20.10;55.00;;;;;;5130632;22;20044;-51
2023/12/10 17:09:12;;;;;;;20.33;4.63;;;20.10;55.40;;;;;;5108753;28;20019;-55
2023/12/10 17:11:38;;;;;;;15.20;5.13;;;20.10;56.10;;;;;;5107854;28;20032;-58
2023/12/10 17:14:03;;;;;;;25.50;4.93;;;20.00;55.20;;;;;;5108388;28;20376;-59
2023/12/10 17:16:30;;;;;;;15.55;5.20;;;20.00;55.10;;;;;;5104575;28;20486;-58
2023/12/10 17:18:56;;;;;;;18.75;5.78;;;20.00;55.00;;;;;;5101153;28;20027;-59
2023/12/10 17:21:22;;;;;;;17.52;5.55;;;20.00;55.50;;;;;;5096745;28;20035;-58
2023/12/10 17:23:48;;;;;;;15.05;5.00;;;20.00;55.00;;;;;;5099879;28;20031;-58
2023/12/10 17:26:14;;;;;;;17.90;5.22;;;20.00;55.00;;;;;;5099365;28;20032;-60
2023/12/10 17:28:40;;;;;;;12.93;5.07;;;20.00;55.00;;;;;;5086328;28;20028;-54
2023/12/10 17:31:06;;;;;;;14.35;5.35;;;20.00;55.00;;;;;;5101296;28;20376;-58
2023/12/10 17:33:32;;;;;;;15.23;5.20;;;20.10;55.00;;;;;;5104879;28;20020;-59
2023/12/10 17:35:58;;;;;;;18.17;4.50;;;20.10;55.10;;;;;;5104477;28;20563;-56
2023/12/10 17:38:25;;;;;;;14.70;5.18;;;20.10;55.20;;;;;;5104393;28;20028;-59
2023/12/10 17:40:52;;;;;;;11.43;4.78;;;20.00;55.40;;;;;;5095461;28;20111;-59
2023/12/10 17:43:17;;;;;;;14.30;5.03;;;20.10;55.60;;;;;;5074007;28;20132;-57
2023/12/10 17:45:43;;;;;;;11.88;4.45;;;20.10;55.50;;;;;;5070609;28;20032;-60
2023/12/10 17:48:09;;;;;;;14.63;4.47;;;20.00;55.50;;;;;;5073759;28;20063;-60
2023/12/10 17:50:35;;;;;;;11.20;4.70;;;20.00;55.50;;;;;;5075705;28;20427;-59
2023/12/10 17:53:01;;;;;;;12.02;4.35;;;20.00;55.60;;;;;;5052499;28;20032;-58
2023/12/10 17:55:27;;;;;;;10.82;4.65;;;20.00;55.50;;;;;;5077290;28;20074;-58
2023/12/10 17:57:53;;;;;;;13.38;4.78;;;20.00;55.40;;;;;;5086024;28;20032;-59
2023/12/10 18:00:19;;;;;;;14.25;4.80;;;20.00;55.50;;;;;;5081089;28;20098;-59
2023/12/10 18:02:45;;;;;;;12.65;4.18;;;20.10;55.50;;;;;;5086521;28;20074;-60
2023/12/10 18:05:11;;;;;;;10.15;3.90;;;20.10;55.50;;;;;;5076920;28;20033;-58
2023/12/10 18:07:37;;;;;;;14.98;4.80;;;20.00;55.40;;;;;;5076160;28;20087;-59
2023/12/10 18:10:03;;;;;;;14.82;4.70;;;20.00;55.40;;;;;;5079029;28;20499;-59
2023/12/10 18:12:29;;;;;;;9.27;4.50;;;20.00;55.50;;;;;;5073821;28;20564;-58
2023/12/10 18:14:55;;;;;;;7.82;4.20;;;20.10;55.50;;;;;;5083782;28;20032;-60
2023/12/10 18:17:20;;;;;;;10.48;4.13;;;20.10;55.40;;;;;;5074928;28;20024;-59
2023/12/10 18:19:46;;;;;;;12.20;5.05;;;20.10;56.00;;;;;;5074807;28;20031;-58
2023/12/10 18:22:12;;;;;;;9.70;3.95;;;20.10;55.40;;;;;;5081034;28;20021;-59
2023/12/10 18:24:38;;;;;;;14.75;4.60;;;20.10;55.40;;;;;;5082252;28;20013;-59
2023/12/10 18:27:04;;;;;;;12.90;4.85;;;20.10;55.40;;;;;;5083587;28;20056;-55
2023/12/10 18:29:30;;;;;;;14.85;4.68;;;20.10;55.30;;;;;;5070841;28;20188;-58
2023/12/10 18:31:56;;;;;;;15.02;4.40;;;20.10;55.40;;;;;;5069331;28;20036;-59
2023/12/10 18:34:24;;;;;;;12.85;4.18;;;20.10;55.40;;;;;;5070052;28;20387;-59
2023/12/10 18:36:49;;;;;;;8.45;4.00;;;20.10;55.30;;;;;;5070083;28;20024;-59
2023/12/10 18:39:16;;;;;;;7.85;4.15;;;20.10;55.40;;;;;;5076719;28;20107;-59
2023/12/10 18:41:42;;;;;;;11.93;4.72;;;20.00;55.30;;;;;;5070661;28;21461;-59
2023/12/10 18:44:07;;;;;;;15.13;4.60;;;20.10;55.40;;;;;;5079994;28;20020;-58
2023/12/10 18:46:33;;;;;;;8.55;4.25;;;20.00;55.40;;;;;;5073090;28;20032;-59
2023/12/10 18:48:59;;;;;;;10.45;4.53;;;20.00;55.30;;;;;;5074730;28;20028;-59
2023/12/10 18:51:25;;;;;;;9.43;4.10;;;20.00;55.40;;;;;;5074560;28;20039;-55
2023/12/10 18:53:51;;;;;;;9.50;4.30;;;20.00;55.40;;;;;;5071176;28;20544;-58
2023/12/10 18:56:17;;;;;;;8.10;4.15;;;20.00;55.40;;;;;;5076448;28;20020;-57
2023/12/10 18:58:43;;;;;;;11.57;4.65;;;20.00;55.40;;;;;;5075030;28;20403;-56
2023/12/10 19:01:09;;;;;;;13.02;4.63;;;20.00;55.40;;;;;;5076165;28;20488;-59
2023/12/10 19:03:35;;;;;;;11.02;4.15;;;20.00;55.40;;;;;;5073743;28;20047;-60
2023/12/10 19:06:03;;;;;;;9.65;4.32;;;20.00;55.40;;;;;;5068946;28;20114;-59
2023/12/10 19:08:28;;;;;;;12.18;4.50;;;20.00;55.40;;;;;;5088055;28;20487;-60
2023/12/10 19:10:54;;;;;;;9.40;4.20;;;20.10;55.40;;;;;;5080979;28;20085;-57
2023/12/10 19:13:20;;;;;;;9.57;4.32;;;20.00;55.30;;;;;;5080213;28;20045;-60
2023/12/10 19:15:46;;;;;;;10.63;4.22;;;20.10;55.30;;;;;;5072718;28;20038;-61
2023/12/10 19:18:12;;;;;;;10.85;4.88;;;20.10;55.30;;;;;;5086208;28;20024;-58
2023/12/10 19:20:38;;;;;;;8.35;4.03;;;20.10;55.30;;;;;;5080279;28;20035;-53
2023/12/10 19:23:04;;;;;;;8.80;4.50;;;20.10;55.30;;;;;;5071025;28;20104;-58
2023/12/10 19:25:30;;;;;;;9.55;4.30;;;20.10;55.30;;;;;;5071933;28;20422;-60
2023/12/10 19:27:56;;;;;;;8.57;4.32;;;20.10;55.30;;;;;;5071344;28;20056;-55
2023/12/10 19:30:21;;;;;;;9.52;4.63;;;20.10;55.30;;;;;;5077551;28;20059;-59
2023/12/10 19:32:47;;;;;;;10.80;4.60;;;20.10;55.30;;;;;;5080885;28;20020;-54
2023/12/10 19:35:13;;;;;;;11.60;5.20;;;20.10;55.30;;;;;;5082862;28;20123;-57
2023/12/10 19:37:39;;;;;;;11.50;5.03;;;20.10;55.50;;;;;;5083601;28;20065;-59
2023/12/10 19:40:05;;;;;;;16.20;5.07;;;20.10;55.60;;;;;;5092158;28;20058;-57
2023/12/10 19:42:32;;;;;;;17.42;5.93;;;20.00;55.10;;;;;;5090403;28;20102;-56
2023/12/10 19:44:57;;;;;;;22.35;5.13;;;19.80;52.50;;;;;;5083484;28;20020;-53
2023/12/10 19:47:23;;;;;;;17.92;4.97;;;19.60;51.20;;;;;;5092537;28;20024;-56
2023/12/10 19:49:49;;;;;;;18.23;5.80;;;19.50;52.20;;;;;;5090315;28;20036;-57
2023/12/10 19:52:16;;;;;;;15.85;5.18;;;19.40;51.60;;;;;;5084659;28;20111;-58
2023/12/10 19:54:42;;;;;;;13.27;4.78;;;19.50;52.60;;;;;;5082606;28;20119;-58
2023/12/10 19:57:07;;;;;;;12.13;4.70;;;19.50;53.00;;;;;;5080803;28;20112;-58
2023/12/10 19:59:37;;;;;;;12.25;4.97;;;19.60;53.10;;;;;;5089003;28;20024;-55
2023/12/10 20:02:06;;;;;;;;;;;19.70;53.10;;;;;;5071551;28;20067;-50
2023/12/10 20:04:33;;;;;;;16.90;4.97;;;19.70;52.80;;;;;;5072100;28;19912;-54
2023/12/10 20:06:59;;;;;;;16.27;5.50;;;19.90;52.80;;;;;;5076015;28;20407;-59
2023/12/10 20:09:25;;;;;;;17.75;5.10;;;19.80;52.80;;;;;;5079420;28;20048;-59
2023/12/10 20:11:50;;;;;;;11.50;4.40;;;19.90;52.90;;;;;;5071020;28;20117;-59
2023/12/10 20:14:16;;;;;;;12.57;5.07;;;19.90;53.10;;;;;;5071487;28;20071;-59
2023/12/10 20:16:42;;;;;;;13.23;5.43;;;20.00;53.10;;;;;;5071569;28;20518;-59
2023/12/10 20:19:08;;;;;;;11.40;4.70;;;20.00;53.40;;;;;;5071272;28;20170;-59
2023/12/10 20:21:35;;;;;;;12.40;5.40;;;20.00;53.40;;;;;;5070958;28;20036;-59
2023/12/10 20:24:01;;;;;;;13.45;4.95;;;20.00;53.60;;;;;;5071383;28;20025;-59
2023/12/10 20:26:27;;;;;;;14.40;4.88;;;20.10;53.80;;;;;;5071167;28;20040;-59
2023/12/10 20:28:54;;;;;;;11.45;4.85;;;20.00;53.80;;;;;;5071369;28;20028;-59
2023/12/10 20:31:20;;;;;;;10.45;4.70;;;20.10;53.80;;;;;;5053255;28;20503;-59
2023/12/10 20:33:46;;;;;;;10.88;4.47;;;20.10;54.00;;;;;;5071386;28;20110;-59
2023/12/10 20:36:12;;;;;;;13.10;4.93;;;20.00;54.10;;;;;;5071360;28;20031;-58
2023/12/10 20:38:38;;;;;;;11.60;4.40;;;20.10;54.10;;;;;;5053758;28;20051;-59
2023/12/10 20:41:04;;;;;;;13.68;4.90;;;20.10;54.20;;;;;;5071119;28;20064;-60
2023/12/10 20:43:30;;;;;;;10.60;4.60;;;20.10;54.20;;;;;;5036860;28;20423;-58
2023/12/10 20:45:56;;;;;;;12.10;4.68;;;20.10;54.30;;;;;;5071241;28;20036;-57
2023/12/10 20:48:22;;;;;;;14.00;4.57;;;20.10;54.40;;;;;;5071299;28;20036;-58
2023/12/10 20:50:48;;;;;;;11.88;4.78;;;20.10;54.40;;;;;;5070854;28;20105;-59
2023/12/10 20:53:13;;;;;;;10.93;4.53;;;20.10;54.50;;;;;;5070643;28;20067;-59
2023/12/10 20:55:39;;;;;;;16.77;4.80;;;20.00;54.60;;;;;;5074723;28;20032;-59
2023/12/10 20:58:05;;;;;;;11.23;4.78;;;20.00;54.90;;;;;;5068225;28;20024;-60
2023/12/10 21:00:34;;;;;;;10.98;4.38;;;20.10;54.80;;;;;;5076460;28;20550;-60
2023/12/10 21:03:02;;;;;;;15.45;5.32;;;20.00;55.10;;;;;;5075259;28;20036;-60
2023/12/10 21:05:28;;;;;;;20.05;4.78;;;20.10;56.40;;;;;;5059203;28;20078;-58
2023/12/10 21:07:54;;;;;;;12.18;4.40;;;20.10;55.70;;;;;;5058309;28;20048;-57
2023/12/10 21:10:19;;;;;;;16.15;5.10;;;20.10;55.20;;;;;;5076128;28;20445;-60
2023/12/10 21:12:45;;;;;;;15.07;4.80;;;20.10;55.20;;;;;;5075185;28;20070;-60
2023/12/10 21:15:11;;;;;;;14.02;4.63;;;20.10;55.30;;;;;;5060601;28;20106;-59
2023/12/10 21:17:37;;;;;;;11.65;4.78;;;20.10;55.40;;;;;;5045806;28;20032;-60
2023/12/10 21:20:04;;;;;;;12.65;4.78;;;20.20;55.60;;;;;;5060046;28;20028;-60
2023/12/10 21:22:29;;;;;;;10.55;4.50;;;20.10;55.60;;;;;;5080986;28;20479;-60
2023/12/10 21:24:55;;;;;;;13.13;4.47;;;20.10;55.70;;;;;;5084289;28;20073;-60
2023/12/10 21:27:21;;;;;;;13.55;4.57;;;20.10;55.90;;;;;;5083126;28;20063;-56
2023/12/10 21:29:47;;;;;;;14.90;4.88;;;20.20;55.70;;;;;;5085875;28;20052;-60
2023/12/10 21:32:13;;;;;;;14.75;4.70;;;20.10;55.60;;;;;;5078491;28;20028;-60
2023/12/10 21:34:40;;;;;;;12.73;4.97;;;20.10;55.90;;;;;;5087454;28;20036;-60
2023/12/10 21:37:05;;;;;;;14.10;4.25;;;20.10;56.10;;;;;;5077787;28;20032;-60
2023/12/10 21:39:31;;;;;;;16.17;4.57;;;20.20;56.10;;;;;;5076974;28;20399;-59
2023/12/10 21:41:57;;;;;;;12.27;4.32;;;20.10;56.70;;;;;;5079157;28;20115;-59
2023/12/10 21:44:23;;;;;;;14.13;4.70;;;20.10;56.80;;;;;;5082280;28;20524;-59
2023/12/10 21:46:48;;;;;;;11.95;4.43;;;20.10;56.40;;;;;;5087277;28;20321;-60
2023/12/10 21:49:14;;;;;;;15.07;4.95;;;20.10;56.40;;;;;;5076328;28;20116;-60
2023/12/10 21:51:42;;;;;;;12.65;4.68;;;20.10;56.50;;;;;;5077315;28;20028;-60
2023/12/10 21:54:07;;;;;;;11.57;4.65;;;20.10;56.50;;;;;;5091331;28;20074;-59
2023/12/10 21:56:33;;;;;;;16.02;4.15;;;20.10;56.60;;;;;;5089305;28;20020;-60
2023/12/10 21:58:59;;;;;;;10.45;4.00;;;20.10;56.80;;;;;;5090846;28;20077;-59
2023/12/10 22:01:25;;;;;;;13.90;4.32;;;20.10;57.00;;;;;;5090687;28;20115;-60
2023/12/10 22:03:51;;;;;;;12.93;4.88;;;20.10;56.90;;;;;;5091013;28;20040;-60
2023/12/10 22:06:17;;;;;;;10.52;4.28;;;20.10;57.10;;;;;;5090971;28;20052;-61
2023/12/10 22:08:43;;;;;;;12.10;4.40;;;20.10;57.10;;;;;;5091592;28;20035;-60
2023/12/10 22:11:09;;;;;;;12.18;4.57;;;20.10;57.10;;;;;;5086579;28;20017;-60
2023/12/10 22:13:35;;;;;;;11.07;4.90;;;20.10;57.10;;;;;;5075157;28;20049;-61
2023/12/10 22:16:01;;;;;;;16.38;4.20;;;20.10;57.00;;;;;;5073444;28;20020;-61
2023/12/10 22:18:27;;;;;;;10.63;4.75;;;20.10;57.10;;;;;;5074988;28;20050;-61
2023/12/10 22:20:52;;;;;;;9.82;4.13;;;20.00;57.10;;;;;;5070502;28;20026;-59
2023/12/10 22:23:18;;;;;;;11.20;3.75;;;20.10;57.10;;;;;;5089994;28;20024;-59
2023/12/10 22:25:44;;;;;;;17.02;4.13;;;20.00;57.00;;;;;;5075165;28;20066;-59
2023/12/10 22:28:10;;;;;;;16.88;4.30;;;20.00;56.90;;;;;;5079118;28;20132;-60
2023/12/10 22:30:36;;;;;;;13.35;4.70;;;20.00;57.10;;;;;;5090533;28;20536;-60
2023/12/10 22:33:02;;;;;;;18.50;4.90;;;20.00;57.10;;;;;;5056370;28;20028;-60
2023/12/10 22:35:28;;;;;;;12.52;4.60;;;20.00;57.10;;;;;;5070311;28;20029;-59
2023/12/10 22:37:54;;;;;;;12.95;4.38;;;19.90;57.10;;;;;;5075488;28;20085;-59
2023/12/10 22:40:20;;;;;;;13.65;4.15;;;20.00;57.20;;;;;;5072869;28;20035;-60
2023/12/10 22:42:46;;;;;;;10.43;4.13;;;19.90;57.10;;;;;;5072870;28;20030;-59
2023/12/10 22:45:13;;;;;;;9.63;4.10;;;19.90;56.90;;;;;;5052186;28;20028;-60
2023/12/10 22:47:40;;;;;;;9.02;4.07;;;19.90;57.10;;;;;;5052609;28;20079;-60
2023/12/10 22:50:07;;;;;;;11.73;4.22;;;19.90;57.30;;;;;;5069934;28;20072;-60
2023/12/10 22:52:32;;;;;;;9.70;4.13;;;19.90;57.10;;;;;;5069614;28;20488;-57
2023/12/10 22:54:58;;;;;;;10.93;4.55;;;19.90;57.40;;;;;;5071313;28;20024;-59
2023/12/10 22:57:24;;;;;;;12.10;4.28;;;19.90;57.20;;;;;;5090420;28;20035;-57
2023/12/10 22:59:50;;;;;;;10.18;4.20;;;19.90;57.30;;;;;;5080099;28;20028;-57
2023/12/10 23:02:17;;;;;;;9.55;3.53;;;19.90;57.30;;;;;;5075475;28;20024;-60
2023/12/10 23:04:43;;;;;;;8.93;3.97;;;19.90;57.30;;;;;;5018312;28;20071;-60
2023/12/10 23:07:09;;;;;;;10.07;4.28;;;19.80;57.00;;;;;;5070286;28;20048;-59
2023/12/10 23:09:35;;;;;;;9.95;3.60;;;19.90;57.50;;;;;;5075503;28;20032;-58
2023/12/10 23:12:01;;;;;;;11.00;3.42;;;19.80;57.30;;;;;;5076132;28;20024;-58
2023/12/10 23:14:27;;;;;;;14.93;4.05;;;19.80;57.30;;;;;;5054617;28;20036;-58
2023/12/10 23:16:52;;;;;;;14.70;3.78;;;19.90;57.10;;;;;;5069727;28;20059;-59
2023/12/10 23:19:18;;;;;;;11.63;4.28;;;19.90;57.30;;;;;;5069605;28;20032;-56
2023/12/10 23:21:44;;;;;;;9.35;3.92;;;19.90;57.60;;;;;;5051307;28;20040;-60
2023/12/10 23:24:10;;;;;;;10.25;4.00;;;19.80;57.10;;;;;;5085111;22;20090;-59
2023/12/10 23:26:36;;;;;;;11.70;3.97;;;19.80;57.00;;;;;;5072118;28;20048;-59
2023/12/10 23:29:01;;;;;;;8.98;3.58;;;19.90;57.50;;;;;;5072492;28;20472;-59
2023/12/10 23:31:27;;;;;;;11.57;3.97;;;19.80;57.30;;;;;;5072075;28;20081;-59
2023/12/10 23:33:53;;;;;;;9.80;3.78;;;19.80;57.30;;;;;;5072158;28;20400;-58
2023/12/10 23:36:19;;;;;;;10.63;3.72;;;19.80;57.60;;;;;;5072343;28;20020;-57
2023/12/10 23:38:45;;;;;;;9.30;3.90;;;19.80;57.40;;;;;;5070951;28;20024;-59
2023/12/10 23:41:12;;;;;;;9.65;4.10;;;19.80;57.40;;;;;;5064454;28;20033;-59
2023/12/10 23:43:38;;;;;;;11.43;3.75;;;19.80;57.50;;;;;;5070030;28;20491;-59
2023/12/10 23:46:10;;;;;;;19.63;4.30;;;19.80;57.60;;;;;;5057670;28;20025;-58
2023/12/10 23:48:40;;;;;;;9.05;3.40;;;19.90;58.00;;;;;;5051931;28;20519;-59
2023/12/10 23:51:19;;;;;;;15.35;3.60;;;19.90;57.60;;;;;;5051590;28;20033;-57
2023/12/10 23:53:45;;;;;;;11.70;4.13;;;19.80;57.90;;;;;;5051817;28;20116;-59
2023/12/10 23:56:11;;;;;;;13.32;3.90;;;19.90;57.60;;;;;;5051792;28;20029;-59
2023/12/10 23:58:37;;;;;;;11.40;3.30;;;19.90;57.60;;;;;;5063144;28;20028;-59
